KANB/ANB METAR and TAF weather

Enter ICAO airport designator
Station Type Date Time Source
KANB METAR 2022/06/25 22:53 UTC NOAA

KANB 252253Z AUTO 08006KT 10SM SCT110 32/22 A3004 RMK AO2 SLP159 T03170222


Station Type Date Time Source
KANB Decoded METAR 2022/06/25 22:53 UTC NOAA

ANNISTON METRO AIRPORT, AL, United States (KANB) 33-35N 085-51W 183M
Jun 25, 2022 - 06:53 PM EDT / 2022.06.25 2253 UTC
Wind: from the E (080 degrees) at 7 MPH (6 KT):0
Visibility: 10 mile(s):0
Sky conditions: partly cloudy
Temperature: 89.1 F (31.7 C)
Heat index: 96.1 F (35.6 C):1
Dew Point: 72.0 F (22.2 C)
Relative Humidity: 57%
Pressure (altimeter): 30.04 in. Hg (1017 hPa)
ob: KANB 252253Z AUTO 08006KT 10SM SCT110 32/22 A3004 RMK AO2 SLP159 T03170222
cycle: 23

Station Type Date Time Source
KANB TAF 2022/06/25 20:04 UTC NOAA

TAF
AMD KANB 252002Z 2520/2618 13007KT P6SM VCTS BKN040CB
TEMPO 2520/2522 VRB11G25KT 2SM TSRA BKN025CB
FM252300 VRB03KT P6SM BKN250

Example: see airport list